UTA205 USTR-UUWW
Flight info
| Callsign | UTA205 |
|---|---|
| Flight time | 2h 39m |
| Altitude | 340 |
| Route | K0854F340 BEPAR T448 BANAM T348 EKB M864 AGNOK T796 ORTIM L158 DIMGI |
| Aircraft | B738/M-SDE2E3FGHIRWXY/LB1 |
Departure
| Time | 2026-04-28 11:27 |
|---|---|
| Airport | Roshchino International Airport (USTR) |
Arrival
| Time | 2026-04-28 14:07 |
|---|---|
| Airport | Vnukovo International Airport (UUWW) |
| Time | Latitude | Longitude | Altitude | Speed | Heading |
|---|---|---|---|---|---|
| 2026-04-28 11:09 | 57.18076 | 65.34794 | 339 ft | 0 kts | 45° |
| 2026-04-28 11:17 | 57.18071 | 65.34786 | 339 ft | 2 kts | 45° |
| 2026-04-28 11:17 | 57.18063 | 65.34771 | 339 ft | 2 kts | 45° |
| 2026-04-28 11:17 | 57.18055 | 65.34756 | 339 ft | 2 kts | 45° |
| 2026-04-28 11:18 | 57.18046 | 65.34740 | 339 ft | 2 kts | 45° |
| 2026-04-28 11:18 | 57.18038 | 65.34725 | 339 ft | 2 kts | 30° |
| 2026-04-28 11:18 | 57.18028 | 65.34715 | 339 ft | 2 kts | 25° |
| 2026-04-28 11:18 | 57.18017 | 65.34707 | 339 ft | 2 kts | 346° |
| 2026-04-28 11:19 | 57.18007 | 65.34718 | 335 ft | 2 kts | 317° |
| 2026-04-28 11:19 | 57.17998 | 65.34733 | 339 ft | 2 kts | 316° |
| 2026-04-28 11:23 | 57.17998 | 65.34725 | 337 ft | 1 kts | 275° |
| 2026-04-28 11:23 | 57.17980 | 65.34665 | 338 ft | 7 kts | 230° |
| 2026-04-28 11:24 | 57.17928 | 65.34569 | 339 ft | 13 kts | 224° |
| 2026-04-28 11:24 | 57.17886 | 65.34428 | 345 ft | 13 kts | 285° |
| 2026-04-28 11:24 | 57.17951 | 65.34286 | 340 ft | 20 kts | 314° |
| 2026-04-28 11:24 | 57.18093 | 65.34018 | 335 ft | 38 kts | 315° |
| 2026-04-28 11:25 | 57.18305 | 65.33625 | 340 ft | 48 kts | 315° |
| 2026-04-28 11:25 | 57.18480 | 65.33250 | 335 ft | 30 kts | 275° |
| 2026-04-28 11:25 | 57.18474 | 65.32860 | 330 ft | 30 kts | 269° |
| 2026-04-28 11:25 | 57.18467 | 65.32476 | 327 ft | 31 kts | 269° |
| 2026-04-28 11:26 | 57.18487 | 65.32149 | 333 ft | 23 kts | 315° |
| 2026-04-28 11:26 | 57.18610 | 65.31948 | 333 ft | 26 kts | 318° |
| 2026-04-28 11:26 | 57.18702 | 65.31725 | 341 ft | 16 kts | 244° |
| 2026-04-28 11:26 | 57.18624 | 65.31561 | 354 ft | 26 kts | 229° |
| 2026-04-28 11:27 | 57.18338 | 65.30986 | 360 ft | 95 kts | 228° |
| 2026-04-28 11:27 | 57.17760 | 65.29817 | 382 ft | 150 kts | 225° |
| 2026-04-28 11:27 | 57.17003 | 65.28252 | 814 ft | 166 kts | 230° |
| 2026-04-28 11:27 | 57.16476 | 65.26367 | 1450 ft | 168 kts | 250° |
| 2026-04-28 11:28 | 57.16330 | 65.24123 | 1691 ft | 185 kts | 265° |
| 2026-04-28 11:28 | 57.16348 | 65.21750 | 2232 ft | 176 kts | 264° |
| 2026-04-28 11:28 | 57.16325 | 65.19545 | 2720 ft | 170 kts | 261° |
| 2026-04-28 11:28 | 57.16286 | 65.17349 | 2989 ft | 178 kts | 259° |
| 2026-04-28 11:29 | 57.16236 | 65.14949 | 3130 ft | 191 kts | 259° |
| 2026-04-28 11:29 | 57.16191 | 65.12568 | 3816 ft | 190 kts | 259° |
| 2026-04-28 11:29 | 57.16134 | 65.10030 | 4127 ft | 214 kts | 261° |
| 2026-04-28 11:29 | 57.16070 | 65.07164 | 4438 ft | 232 kts | 261° |
| 2026-04-28 11:30 | 57.15997 | 65.04043 | 4709 ft | 253 kts | 262° |
| 2026-04-28 11:30 | 57.15848 | 64.97411 | 6283 ft | 261 kts | 261° |
| 2026-04-28 11:30 | 57.15770 | 64.94054 | 7073 ft | 261 kts | 261° |
| 2026-04-28 11:31 | 57.15689 | 64.90664 | 7882 ft | 267 kts | 261° |
| 2026-04-28 11:31 | 57.15607 | 64.87231 | 8721 ft | 269 kts | 261° |
| 2026-04-28 11:31 | 57.15518 | 64.83762 | 9471 ft | 273 kts | 261° |
| 2026-04-28 11:31 | 57.15429 | 64.80238 | 10191 ft | 277 kts | 261° |
| 2026-04-28 11:32 | 57.15334 | 64.76597 | 10589 ft | 296 kts | 262° |
| 2026-04-28 11:32 | 57.15226 | 64.72674 | 10834 ft | 317 kts | 262° |
| 2026-04-28 11:32 | 57.15115 | 64.68495 | 11122 ft | 334 kts | 262° |
| 2026-04-28 11:32 | 57.15006 | 64.64176 | 11711 ft | 341 kts | 262° |
| 2026-04-28 11:33 | 57.14891 | 64.59805 | 12434 ft | 343 kts | 262° |
| 2026-04-28 11:33 | 57.14773 | 64.55406 | 13144 ft | 346 kts | 262° |
| 2026-04-28 11:33 | 57.14650 | 64.50955 | 13797 ft | 349 kts | 262° |
| 2026-04-28 11:33 | 57.14523 | 64.46460 | 14475 ft | 353 kts | 262° |
| 2026-04-28 11:34 | 57.14388 | 64.41925 | 15119 ft | 357 kts | 262° |
| 2026-04-28 11:34 | 57.14249 | 64.37412 | 15782 ft | 358 kts | 261° |
| 2026-04-28 11:34 | 57.14109 | 64.32868 | 16639 ft | 354 kts | 261° |
| 2026-04-28 11:34 | 57.13964 | 64.28304 | 17151 ft | 360 kts | 261° |
| 2026-04-28 11:35 | 57.13815 | 64.23660 | 17649 ft | 366 kts | 261° |
| 2026-04-28 11:35 | 57.13665 | 64.18966 | 18225 ft | 368 kts | 261° |
| 2026-04-28 11:35 | 57.13513 | 64.14249 | 18801 ft | 371 kts | 261° |
| 2026-04-28 11:35 | 57.13358 | 64.09487 | 19325 ft | 374 kts | 261° |
| 2026-04-28 11:36 | 57.13200 | 64.04690 | 19823 ft | 377 kts | 261° |
| 2026-04-28 11:36 | 57.13039 | 63.99848 | 20323 ft | 380 kts | 261° |
| 2026-04-28 11:36 | 57.12875 | 63.94970 | 20822 ft | 383 kts | 260° |
| 2026-04-28 11:36 | 57.12722 | 63.90447 | 21301 ft | 385 kts | 260° |
| 2026-04-28 11:37 | 57.12556 | 63.85545 | 21886 ft | 383 kts | 260° |
| 2026-04-28 11:37 | 57.12389 | 63.80688 | 22569 ft | 380 kts | 260° |
| 2026-04-28 11:37 | 57.12203 | 63.75808 | 22927 ft | 384 kts | 258° |
| 2026-04-28 11:37 | 57.11780 | 63.70957 | 23260 ft | 384 kts | 253° |
| 2026-04-28 11:38 | 57.11217 | 63.66141 | 23686 ft | 386 kts | 252° |
| 2026-04-28 11:38 | 57.10631 | 63.61311 | 24106 ft | 388 kts | 252° |
| 2026-04-28 11:38 | 57.10038 | 63.56450 | 24472 ft | 391 kts | 252° |
| 2026-04-28 11:38 | 57.09451 | 63.51603 | 24822 ft | 394 kts | 252° |
| 2026-04-28 11:39 | 57.08859 | 63.46667 | 25193 ft | 396 kts | 252° |
| 2026-04-28 11:39 | 57.08266 | 63.41707 | 25559 ft | 398 kts | 252° |
| 2026-04-28 11:39 | 57.07674 | 63.36730 | 25924 ft | 400 kts | 252° |
| 2026-04-28 11:39 | 57.07077 | 63.31721 | 26268 ft | 402 kts | 252° |
| 2026-04-28 11:40 | 57.06477 | 63.26687 | 26587 ft | 404 kts | 252° |
| 2026-04-28 11:40 | 57.05873 | 63.21628 | 26899 ft | 407 kts | 252° |
| 2026-04-28 11:40 | 57.05261 | 63.16536 | 27186 ft | 409 kts | 252° |
| 2026-04-28 11:40 | 57.04650 | 63.11455 | 27695 ft | 405 kts | 252° |
| 2026-04-28 11:41 | 57.04041 | 63.06406 | 28053 ft | 406 kts | 252° |
| 2026-04-28 11:41 | 57.03423 | 63.01322 | 28250 ft | 410 kts | 252° |
| 2026-04-28 11:41 | 57.02799 | 62.96204 | 28566 ft | 410 kts | 252° |
| 2026-04-28 11:41 | 57.02177 | 62.91109 | 29010 ft | 408 kts | 252° |
| 2026-04-28 11:42 | 57.01559 | 62.86061 | 29466 ft | 404 kts | 252° |
| 2026-04-28 11:42 | 57.00940 | 62.81028 | 29848 ft | 403 kts | 252° |
| 2026-04-28 11:42 | 57.00321 | 62.76014 | 30141 ft | 404 kts | 251° |
| 2026-04-28 11:42 | 56.99705 | 62.71052 | 30480 ft | 403 kts | 251° |
| 2026-04-28 11:43 | 56.99082 | 62.66055 | 30820 ft | 402 kts | 251° |
| 2026-04-28 11:43 | 56.98458 | 62.61059 | 31150 ft | 401 kts | 251° |
| 2026-04-28 11:43 | 56.97835 | 62.56093 | 31521 ft | 399 kts | 251° |
| 2026-04-28 11:43 | 56.97212 | 62.51142 | 31836 ft | 398 kts | 251° |
| 2026-04-28 11:44 | 56.96588 | 62.46200 | 32123 ft | 398 kts | 251° |
| 2026-04-28 11:44 | 56.95956 | 62.41225 | 32254 ft | 402 kts | 251° |
| 2026-04-28 11:44 | 56.94671 | 62.31161 | 32621 ft | 406 kts | 251° |
| 2026-04-28 11:45 | 56.94033 | 62.26161 | 33017 ft | 402 kts | 251° |
| 2026-04-28 11:45 | 56.93395 | 62.21183 | 33337 ft | 401 kts | 250° |
| 2026-04-28 11:45 | 56.92754 | 62.16205 | 33570 ft | 401 kts | 250° |
| 2026-04-28 11:45 | 56.92111 | 62.11233 | 33786 ft | 402 kts | 250° |
| 2026-04-28 11:46 | 56.91466 | 62.06261 | 34005 ft | 402 kts | 250° |
| 2026-04-28 11:46 | 56.90814 | 62.01265 | 33992 ft | 405 kts | 250° |
| 2026-04-28 11:46 | 56.89502 | 61.91242 | 34002 ft | 403 kts | 250° |
| 2026-04-28 11:47 | 56.88179 | 61.81206 | 34011 ft | 410 kts | 250° |
| 2026-04-28 11:47 | 56.86818 | 61.70982 | 34008 ft | 416 kts | 250° |
| 2026-04-28 11:48 | 56.85441 | 61.60667 | 33996 ft | 418 kts | 250° |
| 2026-04-28 11:48 | 56.84062 | 61.50398 | 34002 ft | 419 kts | 250° |
| 2026-04-28 11:49 | 56.82664 | 61.40067 | 33997 ft | 419 kts | 250° |
| 2026-04-28 11:49 | 56.81260 | 61.29761 | 33999 ft | 418 kts | 249° |
| 2026-04-28 11:50 | 56.79850 | 61.19490 | 34002 ft | 416 kts | 249° |
| 2026-04-28 11:50 | 56.78437 | 61.09259 | 33991 ft | 415 kts | 249° |
| 2026-04-28 11:51 | 56.77020 | 60.99071 | 33990 ft | 414 kts | 249° |
| 2026-04-28 11:51 | 56.75597 | 60.88901 | 33988 ft | 413 kts | 249° |
| 2026-04-28 11:52 | 56.74641 | 60.78482 | 33991 ft | 423 kts | 260° |
| 2026-04-28 11:52 | 56.75069 | 60.67699 | 34000 ft | 433 kts | 269° |
| 2026-04-28 11:53 | 56.75883 | 60.56824 | 33993 ft | 433 kts | 269° |
| 2026-04-28 11:53 | 56.76661 | 60.45955 | 33991 ft | 432 kts | 268° |
| 2026-04-28 11:54 | 56.77406 | 60.35087 | 33990 ft | 431 kts | 268° |
| 2026-04-28 11:54 | 56.78139 | 60.24242 | 33987 ft | 431 kts | 268° |
| 2026-04-28 11:55 | 56.78860 | 60.13405 | 33994 ft | 430 kts | 268° |
| 2026-04-28 11:55 | 56.79532 | 60.02584 | 33991 ft | 429 kts | 267° |
| 2026-04-28 11:56 | 56.80175 | 59.91817 | 33995 ft | 429 kts | 267° |
| 2026-04-28 11:56 | 56.80817 | 59.80986 | 33990 ft | 429 kts | 267° |
| 2026-04-28 11:57 | 56.81451 | 59.70144 | 33983 ft | 430 kts | 266° |
| 2026-04-28 11:57 | 56.82080 | 59.59288 | 33993 ft | 430 kts | 266° |
| 2026-04-28 11:58 | 56.82700 | 59.48430 | 33994 ft | 430 kts | 266° |
| 2026-04-28 11:58 | 56.83310 | 59.37556 | 33991 ft | 430 kts | 266° |
| 2026-04-28 11:59 | 56.83910 | 59.26705 | 33988 ft | 430 kts | 266° |
| 2026-04-28 11:59 | 56.84502 | 59.15824 | 33989 ft | 430 kts | 266° |
| 2026-04-28 12:00 | 56.85061 | 59.04926 | 33980 ft | 429 kts | 264° |
| 2026-04-28 12:00 | 56.85310 | 58.94148 | 33980 ft | 426 kts | 262° |
| 2026-04-28 12:01 | 56.85465 | 58.83320 | 33979 ft | 426 kts | 262° |
| 2026-04-28 12:01 | 56.85627 | 58.72484 | 33988 ft | 427 kts | 262° |
| 2026-04-28 12:02 | 56.85797 | 58.61633 | 33973 ft | 428 kts | 262° |
| 2026-04-28 12:02 | 56.85965 | 58.50768 | 33975 ft | 428 kts | 262° |
| 2026-04-28 12:03 | 56.86126 | 58.39874 | 33972 ft | 429 kts | 262° |
| 2026-04-28 12:03 | 56.86278 | 58.28994 | 33965 ft | 428 kts | 262° |
| 2026-04-28 12:04 | 56.86420 | 58.18171 | 33968 ft | 428 kts | 262° |
| 2026-04-28 12:04 | 56.86552 | 58.07296 | 33968 ft | 428 kts | 262° |
| 2026-04-28 12:05 | 56.86674 | 57.96429 | 33964 ft | 428 kts | 262° |
| 2026-04-28 12:05 | 56.86786 | 57.85552 | 33960 ft | 428 kts | 262° |
| 2026-04-28 12:06 | 56.86890 | 57.74657 | 33948 ft | 428 kts | 262° |
| 2026-04-28 12:06 | 56.86985 | 57.63774 | 33961 ft | 428 kts | 261° |
| 2026-04-28 12:07 | 56.87069 | 57.52894 | 33954 ft | 428 kts | 261° |
| 2026-04-28 12:07 | 56.87144 | 57.42015 | 33947 ft | 428 kts | 261° |
| 2026-04-28 12:08 | 56.87212 | 57.31140 | 33942 ft | 428 kts | 261° |
| 2026-04-28 12:08 | 56.87268 | 57.20269 | 33946 ft | 427 kts | 261° |
| 2026-04-28 12:09 | 56.87307 | 57.11238 | 33942 ft | 427 kts | 261° |
| 2026-04-28 12:09 | 56.87346 | 57.00389 | 33945 ft | 427 kts | 261° |
| 2026-04-28 12:10 | 56.87375 | 56.89553 | 33934 ft | 426 kts | 261° |
| 2026-04-28 12:10 | 56.87396 | 56.78746 | 33934 ft | 424 kts | 261° |
| 2026-04-28 12:11 | 56.87408 | 56.67957 | 33935 ft | 424 kts | 261° |
| 2026-04-28 12:11 | 56.87409 | 56.57184 | 33937 ft | 424 kts | 261° |
| 2026-04-28 12:12 | 56.87402 | 56.46477 | 33933 ft | 424 kts | 261° |
| 2026-04-28 12:12 | 56.87453 | 56.35674 | 33926 ft | 426 kts | 262° |
| 2026-04-28 12:13 | 56.87565 | 56.24859 | 33925 ft | 425 kts | 261° |
| 2026-04-28 12:13 | 56.87656 | 56.14054 | 33920 ft | 425 kts | 261° |
| 2026-04-28 12:14 | 56.87729 | 56.03257 | 33916 ft | 425 kts | 261° |
| 2026-04-28 12:14 | 56.87520 | 55.92560 | 33915 ft | 414 kts | 252° |
| 2026-04-28 12:15 | 56.85989 | 55.82613 | 33900 ft | 402 kts | 240° |
| 2026-04-28 12:15 | 56.83789 | 55.73207 | 33900 ft | 403 kts | 240° |
| 2026-04-28 12:16 | 56.81594 | 55.63758 | 33901 ft | 405 kts | 240° |
| 2026-04-28 12:16 | 56.79401 | 55.54286 | 33898 ft | 406 kts | 240° |
| 2026-04-28 12:17 | 56.77199 | 55.44797 | 33897 ft | 407 kts | 240° |
| 2026-04-28 12:17 | 56.74986 | 55.35298 | 33898 ft | 408 kts | 240° |
| 2026-04-28 12:18 | 56.72776 | 55.25852 | 33900 ft | 408 kts | 240° |
| 2026-04-28 12:18 | 56.70528 | 55.16287 | 33902 ft | 408 kts | 240° |
| 2026-04-28 12:19 | 56.68300 | 55.06854 | 33905 ft | 409 kts | 240° |
| 2026-04-28 12:19 | 56.66047 | 54.97360 | 33909 ft | 410 kts | 240° |
| 2026-04-28 12:20 | 56.63776 | 54.87831 | 33911 ft | 411 kts | 240° |
| 2026-04-28 12:20 | 56.61494 | 54.78290 | 33904 ft | 412 kts | 241° |
| 2026-04-28 12:21 | 56.59203 | 54.68755 | 33900 ft | 412 kts | 240° |
| 2026-04-28 12:21 | 56.56905 | 54.59232 | 33897 ft | 412 kts | 240° |
| 2026-04-28 12:22 | 56.54600 | 54.49722 | 33897 ft | 412 kts | 240° |
| 2026-04-28 12:22 | 56.52294 | 54.40244 | 33900 ft | 411 kts | 240° |
| 2026-04-28 12:23 | 56.49979 | 54.30774 | 33901 ft | 411 kts | 240° |
| 2026-04-28 12:23 | 56.47654 | 54.21322 | 33900 ft | 411 kts | 240° |
| 2026-04-28 12:24 | 56.45322 | 54.11885 | 33898 ft | 411 kts | 240° |
| 2026-04-28 12:24 | 56.42985 | 54.02466 | 33900 ft | 410 kts | 240° |
| 2026-04-28 12:25 | 56.40647 | 53.93073 | 33894 ft | 410 kts | 241° |
| 2026-04-28 12:25 | 56.38314 | 53.83670 | 33887 ft | 410 kts | 240° |
| 2026-04-28 12:26 | 56.35975 | 53.74284 | 33895 ft | 410 kts | 240° |
| 2026-04-28 12:26 | 56.33625 | 53.64897 | 33889 ft | 411 kts | 240° |
| 2026-04-28 12:27 | 56.31257 | 53.55590 | 33898 ft | 412 kts | 240° |
| 2026-04-28 12:27 | 56.28828 | 53.46228 | 33887 ft | 413 kts | 240° |
| 2026-04-28 12:28 | 56.26390 | 53.36855 | 33876 ft | 414 kts | 240° |
| 2026-04-28 12:28 | 56.23940 | 53.27462 | 33879 ft | 415 kts | 240° |
| 2026-04-28 12:29 | 56.20241 | 53.13336 | 33876 ft | 417 kts | 240° |
| 2026-04-28 12:30 | 56.17756 | 53.03896 | 33868 ft | 418 kts | 240° |
| 2026-04-28 12:30 | 56.15276 | 52.94513 | 33874 ft | 419 kts | 240° |
| 2026-04-28 12:31 | 56.12764 | 52.85048 | 33864 ft | 421 kts | 240° |
| 2026-04-28 12:31 | 56.10240 | 52.75573 | 33862 ft | 422 kts | 240° |
| 2026-04-28 12:32 | 56.07703 | 52.66083 | 33860 ft | 423 kts | 240° |
| 2026-04-28 12:32 | 56.05157 | 52.56587 | 33862 ft | 423 kts | 240° |
| 2026-04-28 12:33 | 56.02624 | 52.47082 | 33858 ft | 423 kts | 241° |
| 2026-04-28 12:33 | 56.00089 | 52.37600 | 33861 ft | 423 kts | 241° |
| 2026-04-28 12:34 | 55.97548 | 52.28140 | 33861 ft | 422 kts | 240° |
| 2026-04-28 12:34 | 55.95000 | 52.18694 | 33860 ft | 422 kts | 240° |
| 2026-04-28 12:35 | 55.92461 | 52.09323 | 33865 ft | 421 kts | 240° |
| 2026-04-28 12:35 | 55.89902 | 51.99919 | 33854 ft | 422 kts | 240° |
| 2026-04-28 12:36 | 55.87331 | 51.90513 | 33857 ft | 422 kts | 240° |
| 2026-04-28 12:36 | 55.84749 | 51.81097 | 33851 ft | 423 kts | 240° |
| 2026-04-28 12:37 | 55.82158 | 51.71689 | 33852 ft | 424 kts | 240° |
| 2026-04-28 12:37 | 55.79559 | 51.62285 | 33852 ft | 424 kts | 240° |
| 2026-04-28 12:38 | 55.76952 | 51.52894 | 33850 ft | 422 kts | 240° |
| 2026-04-28 12:38 | 55.74365 | 51.43613 | 33851 ft | 422 kts | 240° |
| 2026-04-28 12:39 | 55.71918 | 51.34146 | 33886 ft | 422 kts | 243° |
| 2026-04-28 12:39 | 55.69672 | 51.24515 | 33870 ft | 423 kts | 244° |
| 2026-04-28 12:40 | 55.67428 | 51.14892 | 33872 ft | 422 kts | 244° |
| 2026-04-28 12:40 | 55.65166 | 51.05306 | 33868 ft | 422 kts | 243° |
| 2026-04-28 12:41 | 55.62892 | 50.95746 | 33862 ft | 422 kts | 243° |
| 2026-04-28 12:41 | 55.60604 | 50.86178 | 33862 ft | 422 kts | 244° |
| 2026-04-28 12:42 | 55.58303 | 50.76596 | 33857 ft | 423 kts | 243° |
| 2026-04-28 12:42 | 55.55996 | 50.67029 | 33847 ft | 423 kts | 243° |
| 2026-04-28 12:43 | 55.53680 | 50.57472 | 33843 ft | 423 kts | 243° |
| 2026-04-28 12:43 | 55.51357 | 50.47918 | 33840 ft | 424 kts | 243° |
| 2026-04-28 12:44 | 55.49029 | 50.38385 | 33827 ft | 423 kts | 243° |
| 2026-04-28 12:44 | 55.46691 | 50.28862 | 33833 ft | 424 kts | 243° |
| 2026-04-28 12:45 | 55.44341 | 50.19333 | 33819 ft | 424 kts | 243° |
| 2026-04-28 12:45 | 55.41981 | 50.09786 | 33815 ft | 425 kts | 243° |
| 2026-04-28 12:46 | 55.39924 | 50.00021 | 33814 ft | 429 kts | 253° |
| 2026-04-28 12:46 | 55.39165 | 49.89528 | 33806 ft | 438 kts | 264° |
| 2026-04-28 12:47 | 55.39618 | 49.78761 | 33805 ft | 443 kts | 270° |
| 2026-04-28 12:47 | 55.40198 | 49.68052 | 33804 ft | 443 kts | 269° |
| 2026-04-28 12:48 | 55.40734 | 49.57268 | 33797 ft | 442 kts | 269° |
| 2026-04-28 12:48 | 55.41240 | 49.46494 | 33797 ft | 441 kts | 269° |
| 2026-04-28 12:49 | 55.41737 | 49.35725 | 33797 ft | 441 kts | 269° |
| 2026-04-28 12:49 | 55.42222 | 49.24973 | 33788 ft | 441 kts | 269° |
| 2026-04-28 12:50 | 55.42696 | 49.14207 | 33785 ft | 441 kts | 269° |
| 2026-04-28 12:50 | 55.43163 | 49.03440 | 33776 ft | 441 kts | 269° |
| 2026-04-28 12:51 | 55.43621 | 48.92674 | 33780 ft | 441 kts | 269° |
| 2026-04-28 12:51 | 55.44071 | 48.81888 | 33776 ft | 442 kts | 269° |
| 2026-04-28 12:52 | 55.44509 | 48.71138 | 33783 ft | 443 kts | 269° |
| 2026-04-28 12:52 | 55.44943 | 48.60292 | 33782 ft | 444 kts | 269° |
| 2026-04-28 12:53 | 55.45836 | 48.49466 | 33767 ft | 454 kts | 281° |
| 2026-04-28 12:53 | 55.47726 | 48.38813 | 33777 ft | 456 kts | 281° |
| 2026-04-28 12:54 | 55.49627 | 48.28139 | 33766 ft | 456 kts | 281° |
| 2026-04-28 12:54 | 55.51490 | 48.17424 | 33752 ft | 456 kts | 281° |
| 2026-04-28 12:55 | 55.53328 | 48.06682 | 33752 ft | 457 kts | 281° |
| 2026-04-28 12:55 | 55.54846 | 47.97749 | 33755 ft | 457 kts | 281° |
| 2026-04-28 12:56 | 55.56665 | 47.87000 | 33743 ft | 457 kts | 281° |
| 2026-04-28 12:56 | 55.58478 | 47.76222 | 33743 ft | 458 kts | 281° |
| 2026-04-28 12:57 | 55.60283 | 47.65420 | 33738 ft | 458 kts | 281° |
| 2026-04-28 12:57 | 55.62082 | 47.54588 | 33722 ft | 458 kts | 281° |
| 2026-04-28 12:58 | 55.63867 | 47.43785 | 33724 ft | 457 kts | 281° |
| 2026-04-28 12:58 | 55.65629 | 47.33049 | 33715 ft | 456 kts | 281° |
| 2026-04-28 12:59 | 55.67389 | 47.22257 | 33703 ft | 456 kts | 281° |
| 2026-04-28 12:59 | 55.69141 | 47.11461 | 33705 ft | 456 kts | 281° |
| 2026-04-28 13:00 | 55.70885 | 47.00650 | 33700 ft | 456 kts | 281° |
| 2026-04-28 13:00 | 55.72620 | 46.89833 | 33707 ft | 455 kts | 281° |
| 2026-04-28 13:01 | 55.74342 | 46.79028 | 33700 ft | 455 kts | 281° |
| 2026-04-28 13:01 | 55.76053 | 46.68229 | 33705 ft | 455 kts | 281° |
| 2026-04-28 13:02 | 55.77757 | 46.57418 | 33702 ft | 454 kts | 281° |
| 2026-04-28 13:02 | 55.79365 | 46.46576 | 33700 ft | 452 kts | 276° |
| 2026-04-28 13:03 | 55.79855 | 46.35596 | 33700 ft | 448 kts | 269° |
| 2026-04-28 13:03 | 55.80160 | 46.24534 | 33704 ft | 449 kts | 269° |
| 2026-04-28 13:04 | 55.80490 | 46.13447 | 33705 ft | 450 kts | 269° |
| 2026-04-28 13:04 | 55.80832 | 46.02332 | 33700 ft | 451 kts | 269° |
| 2026-04-28 13:05 | 55.81167 | 45.91197 | 33694 ft | 451 kts | 269° |
| 2026-04-28 13:05 | 55.81491 | 45.80049 | 33695 ft | 452 kts | 269° |
| 2026-04-28 13:06 | 55.81803 | 45.68904 | 33694 ft | 451 kts | 269° |
| 2026-04-28 13:06 | 55.82110 | 45.57741 | 33694 ft | 450 kts | 269° |
| 2026-04-28 13:07 | 55.82404 | 45.46685 | 33682 ft | 450 kts | 269° |
| 2026-04-28 13:07 | 55.82687 | 45.35556 | 33687 ft | 449 kts | 269° |
| 2026-04-28 13:08 | 55.82958 | 45.24451 | 33671 ft | 450 kts | 269° |
| 2026-04-28 13:08 | 55.83222 | 45.13337 | 33687 ft | 450 kts | 269° |
| 2026-04-28 13:09 | 55.83477 | 45.02214 | 33661 ft | 450 kts | 269° |
| 2026-04-28 13:09 | 55.83722 | 44.91087 | 33652 ft | 449 kts | 269° |
| 2026-04-28 13:10 | 55.83959 | 44.79979 | 33653 ft | 450 kts | 269° |
| 2026-04-28 13:10 | 55.84186 | 44.68869 | 33644 ft | 450 kts | 269° |
| 2026-04-28 13:11 | 55.84405 | 44.57740 | 33643 ft | 450 kts | 269° |
| 2026-04-28 13:11 | 55.84616 | 44.46596 | 33638 ft | 451 kts | 269° |
| 2026-04-28 13:12 | 55.84818 | 44.35439 | 33636 ft | 451 kts | 269° |
| 2026-04-28 13:12 | 55.85007 | 44.24283 | 33629 ft | 452 kts | 269° |
| 2026-04-28 13:13 | 55.85184 | 44.13081 | 33628 ft | 452 kts | 269° |
| 2026-04-28 13:13 | 55.85353 | 44.01948 | 33629 ft | 453 kts | 269° |
| 2026-04-28 13:14 | 55.85513 | 43.90714 | 33621 ft | 454 kts | 269° |
| 2026-04-28 13:14 | 55.85663 | 43.79480 | 33616 ft | 454 kts | 269° |
| 2026-04-28 13:15 | 55.85802 | 43.68245 | 33617 ft | 455 kts | 269° |
| 2026-04-28 13:15 | 55.85934 | 43.56995 | 33622 ft | 454 kts | 269° |
| 2026-04-28 13:16 | 55.86055 | 43.45770 | 33616 ft | 453 kts | 269° |
| 2026-04-28 13:16 | 55.86175 | 43.34551 | 33622 ft | 453 kts | 269° |
| 2026-04-28 13:17 | 55.86287 | 43.23348 | 33616 ft | 452 kts | 269° |
| 2026-04-28 13:17 | 55.86387 | 43.12171 | 33618 ft | 451 kts | 269° |
| 2026-04-28 13:18 | 55.86476 | 43.00990 | 33620 ft | 451 kts | 268° |
| 2026-04-28 13:18 | 55.86555 | 42.89806 | 33621 ft | 452 kts | 269° |
| 2026-04-28 13:19 | 55.86626 | 42.78671 | 33620 ft | 453 kts | 268° |
| 2026-04-28 13:19 | 55.86685 | 42.67451 | 33620 ft | 453 kts | 269° |
| 2026-04-28 13:20 | 55.86732 | 42.56230 | 33628 ft | 453 kts | 269° |
| 2026-04-28 13:20 | 55.86774 | 42.44988 | 33626 ft | 453 kts | 269° |
| 2026-04-28 13:21 | 55.86804 | 42.33771 | 33627 ft | 454 kts | 268° |
| 2026-04-28 13:21 | 55.86822 | 42.22534 | 33630 ft | 454 kts | 269° |
| 2026-04-28 13:22 | 55.86831 | 42.11269 | 33629 ft | 455 kts | 268° |
| 2026-04-28 13:22 | 55.86830 | 41.99987 | 33640 ft | 455 kts | 268° |
| 2026-04-28 13:23 | 55.86820 | 41.88779 | 33638 ft | 456 kts | 268° |
| 2026-04-28 13:23 | 55.86798 | 41.77502 | 33638 ft | 456 kts | 268° |
| 2026-04-28 13:24 | 55.86534 | 41.66212 | 33639 ft | 456 kts | 265° |
| 2026-04-28 13:24 | 55.86131 | 41.54938 | 33640 ft | 456 kts | 265° |
| 2026-04-28 13:25 | 55.85746 | 41.43668 | 33648 ft | 456 kts | 265° |
| 2026-04-28 13:25 | 55.85379 | 41.32425 | 33642 ft | 454 kts | 265° |
| 2026-04-28 13:26 | 55.85010 | 41.21178 | 33648 ft | 454 kts | 265° |
| 2026-04-28 13:26 | 55.84628 | 41.09951 | 33648 ft | 454 kts | 265° |
| 2026-04-28 13:27 | 55.84238 | 40.98752 | 33645 ft | 450 kts | 265° |
| 2026-04-28 13:27 | 55.83843 | 40.87714 | 33639 ft | 446 kts | 265° |
| 2026-04-28 13:27 | 55.83646 | 40.82287 | 33577 ft | 434 kts | 265° |
| 2026-04-28 13:28 | 55.83451 | 40.77008 | 33427 ft | 421 kts | 265° |
| 2026-04-28 13:28 | 55.83260 | 40.71862 | 33110 ft | 415 kts | 265° |
| 2026-04-28 13:28 | 55.83066 | 40.66730 | 32828 ft | 418 kts | 265° |
| 2026-04-28 13:28 | 55.82867 | 40.61541 | 32450 ft | 422 kts | 265° |
| 2026-04-28 13:29 | 55.82661 | 40.56343 | 32079 ft | 420 kts | 265° |
| 2026-04-28 13:29 | 55.82451 | 40.51180 | 31708 ft | 415 kts | 265° |
| 2026-04-28 13:29 | 55.82241 | 40.46102 | 31340 ft | 409 kts | 266° |
| 2026-04-28 13:29 | 55.82033 | 40.41094 | 30956 ft | 402 kts | 266° |
| 2026-04-28 13:30 | 55.81828 | 40.36178 | 30583 ft | 396 kts | 266° |
| 2026-04-28 13:30 | 55.81625 | 40.31337 | 30205 ft | 390 kts | 266° |
| 2026-04-28 13:30 | 55.81423 | 40.26560 | 29828 ft | 385 kts | 266° |
| 2026-04-28 13:30 | 55.81220 | 40.21847 | 29452 ft | 379 kts | 266° |
| 2026-04-28 13:31 | 55.80819 | 40.12598 | 28702 ft | 371 kts | 266° |
| 2026-04-28 13:31 | 55.80617 | 40.08043 | 28324 ft | 367 kts | 266° |
| 2026-04-28 13:31 | 55.80418 | 40.03543 | 27952 ft | 363 kts | 266° |
| 2026-04-28 13:32 | 55.80220 | 39.99104 | 27739 ft | 356 kts | 266° |
| 2026-04-28 13:32 | 55.80025 | 39.94804 | 27716 ft | 343 kts | 266° |
| 2026-04-28 13:32 | 55.79839 | 39.90655 | 27704 ft | 331 kts | 266° |
| 2026-04-28 13:32 | 55.79657 | 39.86633 | 27704 ft | 321 kts | 266° |
| 2026-04-28 13:33 | 55.79476 | 39.82756 | 27711 ft | 310 kts | 266° |
| 2026-04-28 13:33 | 55.79285 | 39.78956 | 27616 ft | 314 kts | 264° |
| 2026-04-28 13:33 | 55.79035 | 39.75001 | 27516 ft | 330 kts | 264° |
| 2026-04-28 13:33 | 55.78759 | 39.70921 | 27404 ft | 344 kts | 264° |
| 2026-04-28 13:34 | 55.78468 | 39.66601 | 27293 ft | 360 kts | 264° |
| 2026-04-28 13:34 | 55.78169 | 39.62114 | 27172 ft | 372 kts | 264° |
| 2026-04-28 13:34 | 55.77863 | 39.57515 | 27035 ft | 375 kts | 264° |
| 2026-04-28 13:34 | 55.77558 | 39.52952 | 26889 ft | 369 kts | 264° |
| 2026-04-28 13:35 | 55.77258 | 39.48475 | 26775 ft | 359 kts | 265° |
| 2026-04-28 13:35 | 55.76967 | 39.44161 | 26717 ft | 346 kts | 265° |
| 2026-04-28 13:35 | 55.76681 | 39.39939 | 26593 ft | 344 kts | 265° |
| 2026-04-28 13:35 | 55.76392 | 39.35712 | 26504 ft | 345 kts | 265° |
| 2026-04-28 13:36 | 55.76095 | 39.31464 | 26432 ft | 347 kts | 265° |
| 2026-04-28 13:36 | 55.75795 | 39.27206 | 26356 ft | 348 kts | 265° |
| 2026-04-28 13:36 | 55.75493 | 39.22936 | 26280 ft | 348 kts | 265° |
| 2026-04-28 13:36 | 55.75191 | 39.18678 | 26204 ft | 348 kts | 265° |
| 2026-04-28 13:37 | 55.74885 | 39.14398 | 26131 ft | 348 kts | 265° |
| 2026-04-28 13:37 | 55.74580 | 39.10133 | 26052 ft | 348 kts | 265° |
| 2026-04-28 13:37 | 55.74274 | 39.05868 | 25980 ft | 348 kts | 265° |
| 2026-04-28 13:37 | 55.73967 | 39.01602 | 25884 ft | 349 kts | 265° |
| 2026-04-28 13:38 | 55.73656 | 38.97323 | 25797 ft | 351 kts | 265° |
| 2026-04-28 13:38 | 55.73343 | 38.93050 | 25763 ft | 347 kts | 265° |
| 2026-04-28 13:38 | 55.73132 | 38.90240 | 25768 ft | 347 kts | 265° |
| 2026-04-28 13:38 | 55.72802 | 38.85981 | 25636 ft | 350 kts | 265° |
| 2026-04-28 13:39 | 55.72357 | 38.80280 | 25028 ft | 351 kts | 265° |
| 2026-04-28 13:39 | 55.72022 | 38.76000 | 24586 ft | 349 kts | 265° |
| 2026-04-28 13:39 | 55.71688 | 38.71745 | 24136 ft | 347 kts | 265° |
| 2026-04-28 13:39 | 55.71359 | 38.67521 | 23688 ft | 345 kts | 265° |
| 2026-04-28 13:40 | 55.71143 | 38.64674 | 23384 ft | 343 kts | 265° |
| 2026-04-28 13:40 | 55.70834 | 38.60555 | 22967 ft | 340 kts | 265° |
| 2026-04-28 13:40 | 55.70524 | 38.56413 | 22538 ft | 338 kts | 265° |
| 2026-04-28 13:40 | 55.70213 | 38.52306 | 22111 ft | 335 kts | 265° |
| 2026-04-28 13:41 | 55.69900 | 38.48230 | 21814 ft | 329 kts | 265° |
| 2026-04-28 13:41 | 55.69593 | 38.44232 | 21792 ft | 329 kts | 265° |
| 2026-04-28 13:41 | 55.69285 | 38.40209 | 21731 ft | 328 kts | 266° |
| 2026-04-28 13:41 | 55.68979 | 38.36218 | 21445 ft | 327 kts | 266° |
| 2026-04-28 13:42 | 55.68673 | 38.32233 | 21012 ft | 326 kts | 266° |
| 2026-04-28 13:42 | 55.68365 | 38.28249 | 20586 ft | 326 kts | 266° |
| 2026-04-28 13:42 | 55.68055 | 38.24271 | 20162 ft | 327 kts | 267° |
| 2026-04-28 13:42 | 55.67741 | 38.20288 | 19820 ft | 324 kts | 267° |
| 2026-04-28 13:43 | 55.67425 | 38.16385 | 19652 ft | 315 kts | 267° |
| 2026-04-28 13:43 | 55.67115 | 38.12601 | 19533 ft | 306 kts | 267° |
| 2026-04-28 13:43 | 55.66814 | 38.08927 | 19408 ft | 297 kts | 267° |
| 2026-04-28 13:43 | 55.66523 | 38.05365 | 19285 ft | 288 kts | 267° |
| 2026-04-28 13:44 | 55.66240 | 38.01886 | 19165 ft | 283 kts | 268° |
| 2026-04-28 13:44 | 55.65960 | 37.98436 | 19056 ft | 285 kts | 268° |
| 2026-04-28 13:44 | 55.65674 | 37.94923 | 18957 ft | 292 kts | 268° |
| 2026-04-28 13:44 | 55.65378 | 37.91340 | 18848 ft | 294 kts | 267° |
| 2026-04-28 13:45 | 55.65063 | 37.87775 | 18673 ft | 294 kts | 263° |
| 2026-04-28 13:45 | 55.64282 | 37.84362 | 18397 ft | 304 kts | 247° |
| 2026-04-28 13:45 | 55.63209 | 37.81143 | 18149 ft | 303 kts | 246° |
| 2026-04-28 13:45 | 55.62131 | 37.77936 | 17823 ft | 304 kts | 246° |
| 2026-04-28 13:46 | 55.61052 | 37.74702 | 17501 ft | 305 kts | 247° |
| 2026-04-28 13:46 | 55.59981 | 37.71467 | 17178 ft | 304 kts | 247° |
| 2026-04-28 13:46 | 55.58919 | 37.68246 | 16851 ft | 303 kts | 247° |
| 2026-04-28 13:46 | 55.57858 | 37.65029 | 16524 ft | 301 kts | 246° |
| 2026-04-28 13:47 | 55.56807 | 37.61839 | 16204 ft | 300 kts | 247° |
| 2026-04-28 13:47 | 55.55544 | 37.58860 | 15848 ft | 311 kts | 227° |
| 2026-04-28 13:47 | 55.53640 | 37.56926 | 15532 ft | 324 kts | 204° |
| 2026-04-28 13:47 | 55.51392 | 37.56188 | 15232 ft | 330 kts | 193° |
| 2026-04-28 13:48 | 55.49110 | 37.55728 | 14858 ft | 331 kts | 192° |
| 2026-04-28 13:48 | 55.46834 | 37.55261 | 14600 ft | 327 kts | 192° |
| 2026-04-28 13:48 | 55.44584 | 37.54792 | 14317 ft | 323 kts | 192° |
| 2026-04-28 13:48 | 55.42368 | 37.54314 | 14034 ft | 319 kts | 192° |
| 2026-04-28 13:49 | 55.40174 | 37.53827 | 13764 ft | 316 kts | 192° |
| 2026-04-28 13:49 | 55.38008 | 37.53344 | 13512 ft | 312 kts | 192° |
| 2026-04-28 13:49 | 55.35895 | 37.52874 | 13263 ft | 308 kts | 192° |
| 2026-04-28 13:49 | 55.33753 | 37.52615 | 13000 ft | 309 kts | 184° |
| 2026-04-28 13:50 | 55.31616 | 37.52821 | 12740 ft | 304 kts | 180° |
| 2026-04-28 13:50 | 55.29539 | 37.53105 | 12482 ft | 294 kts | 181° |
| 2026-04-28 13:50 | 55.27523 | 37.53349 | 12221 ft | 286 kts | 182° |
| 2026-04-28 13:50 | 55.25547 | 37.53552 | 11971 ft | 283 kts | 182° |
| 2026-04-28 13:51 | 55.23590 | 37.53735 | 11725 ft | 281 kts | 182° |
| 2026-04-28 13:51 | 55.21642 | 37.53911 | 11478 ft | 279 kts | 183° |
| 2026-04-28 13:51 | 55.19708 | 37.53905 | 11225 ft | 276 kts | 188° |
| 2026-04-28 13:51 | 55.17793 | 37.53759 | 10975 ft | 275 kts | 188° |
| 2026-04-28 13:52 | 55.15890 | 37.53602 | 10725 ft | 271 kts | 188° |
| 2026-04-28 13:52 | 55.14026 | 37.53465 | 10455 ft | 265 kts | 188° |
| 2026-04-28 13:52 | 55.12189 | 37.53342 | 10220 ft | 263 kts | 189° |
| 2026-04-28 13:52 | 55.10356 | 37.53223 | 9977 ft | 263 kts | 189° |
| 2026-04-28 13:53 | 55.08589 | 37.52846 | 9661 ft | 254 kts | 210° |
| 2026-04-28 13:53 | 55.07286 | 37.51034 | 9252 ft | 234 kts | 244° |
| 2026-04-28 13:53 | 55.06702 | 37.48468 | 8870 ft | 225 kts | 263° |
| 2026-04-28 13:53 | 55.06697 | 37.45775 | 8465 ft | 223 kts | 283° |
| 2026-04-28 13:54 | 55.07297 | 37.43302 | 8064 ft | 223 kts | 303° |
| 2026-04-28 13:54 | 55.08422 | 37.41429 | 7663 ft | 227 kts | 322° |
| 2026-04-28 13:54 | 55.09895 | 37.40378 | 7254 ft | 234 kts | 343° |
| 2026-04-28 13:54 | 55.11522 | 37.40064 | 6879 ft | 235 kts | 348° |
| 2026-04-28 13:55 | 55.13149 | 37.39828 | 6468 ft | 234 kts | 348° |
| 2026-04-28 13:55 | 55.14783 | 37.39603 | 6095 ft | 233 kts | 348° |
| 2026-04-28 13:55 | 55.16360 | 37.39385 | 6015 ft | 221 kts | 348° |
| 2026-04-28 13:55 | 55.17874 | 37.39162 | 6021 ft | 221 kts | 348° |
| 2026-04-28 13:56 | 55.19404 | 37.38929 | 6022 ft | 221 kts | 348° |
| 2026-04-28 13:56 | 55.20937 | 37.38690 | 6006 ft | 220 kts | 347° |
| 2026-04-28 13:56 | 55.22465 | 37.38459 | 6008 ft | 219 kts | 348° |
| 2026-04-28 13:56 | 55.23979 | 37.38230 | 6008 ft | 218 kts | 347° |
| 2026-04-28 13:57 | 55.25488 | 37.37998 | 6006 ft | 218 kts | 347° |
| 2026-04-28 13:57 | 55.26997 | 37.37764 | 6012 ft | 217 kts | 347° |
| 2026-04-28 13:57 | 55.28503 | 37.37531 | 6001 ft | 217 kts | 348° |
| 2026-04-28 13:57 | 55.30011 | 37.37301 | 5993 ft | 217 kts | 347° |
| 2026-04-28 13:58 | 55.31498 | 37.37104 | 5990 ft | 221 kts | 353° |
| 2026-04-28 13:58 | 55.33076 | 37.37573 | 5731 ft | 237 kts | 8° |
| 2026-04-28 13:58 | 55.34659 | 37.38370 | 5523 ft | 235 kts | 8° |
| 2026-04-28 13:58 | 55.36225 | 37.39155 | 5313 ft | 233 kts | 8° |
| 2026-04-28 13:59 | 55.37783 | 37.39930 | 5104 ft | 232 kts | 8° |
| 2026-04-28 13:59 | 55.39328 | 37.40693 | 4882 ft | 230 kts | 7° |
| 2026-04-28 13:59 | 55.40859 | 37.41439 | 4710 ft | 226 kts | 7° |
| 2026-04-28 13:59 | 55.42366 | 37.42165 | 4516 ft | 223 kts | 7° |
| 2026-04-28 14:00 | 55.43858 | 37.42883 | 4320 ft | 221 kts | 8° |
| 2026-04-28 14:00 | 55.45341 | 37.43599 | 4112 ft | 220 kts | 8° |
| 2026-04-28 14:00 | 55.46811 | 37.44306 | 3927 ft | 218 kts | 7° |
| 2026-04-28 14:00 | 55.48265 | 37.45003 | 3751 ft | 215 kts | 7° |
| 2026-04-28 14:01 | 55.49697 | 37.45691 | 3609 ft | 212 kts | 8° |
| 2026-04-28 14:01 | 55.51088 | 37.46362 | 3448 ft | 207 kts | 7° |
| 2026-04-28 14:01 | 55.52455 | 37.47024 | 3256 ft | 200 kts | 7° |
| 2026-04-28 14:01 | 55.53778 | 37.47664 | 3082 ft | 193 kts | 7° |
| 2026-04-28 14:02 | 55.55050 | 37.48288 | 2947 ft | 187 kts | 6° |
| 2026-04-28 14:02 | 55.56300 | 37.48892 | 2842 ft | 186 kts | 6° |
| 2026-04-28 14:02 | 55.57553 | 37.49495 | 2729 ft | 187 kts | 7° |
| 2026-04-28 14:02 | 55.58814 | 37.50077 | 2620 ft | 184 kts | 0° |
| 2026-04-28 14:03 | 55.59969 | 37.49776 | 2490 ft | 158 kts | 328° |
| 2026-04-28 14:03 | 55.60962 | 37.49056 | 2405 ft | 153 kts | 330° |
| 2026-04-28 14:03 | 55.61960 | 37.48358 | 2293 ft | 155 kts | 331° |
| 2026-04-28 14:03 | 55.62926 | 37.47563 | 2209 ft | 149 kts | 312° |
| 2026-04-28 14:04 | 55.63245 | 37.45974 | 2211 ft | 141 kts | 259° |
| 2026-04-28 14:04 | 55.62994 | 37.44319 | 2243 ft | 137 kts | 255° |
| 2026-04-28 14:04 | 55.62716 | 37.42732 | 2202 ft | 130 kts | 256° |
| 2026-04-28 14:04 | 55.62462 | 37.41225 | 2165 ft | 128 kts | 256° |
| 2026-04-28 14:05 | 55.62185 | 37.39699 | 1985 ft | 131 kts | 252° |
| 2026-04-28 14:05 | 55.61849 | 37.38130 | 1779 ft | 137 kts | 250° |
| 2026-04-28 14:05 | 55.61505 | 37.36594 | 1607 ft | 132 kts | 250° |
| 2026-04-28 14:05 | 55.61163 | 37.35082 | 1445 ft | 135 kts | 249° |
| 2026-04-28 14:06 | 55.60839 | 37.33506 | 1277 ft | 141 kts | 250° |
| 2026-04-28 14:06 | 55.60399 | 37.31901 | 1094 ft | 145 kts | 248° |
| 2026-04-28 14:06 | 55.60071 | 37.30289 | 836 ft | 133 kts | 250° |
| 2026-04-28 14:06 | 55.59744 | 37.28780 | 716 ft | 130 kts | 248° |
| 2026-04-28 14:07 | 55.59442 | 37.27425 | 674 ft | 103 kts | 249° |
| 2026-04-28 14:07 | 55.59236 | 37.26517 | 668 ft | 40 kts | 248° |
| 2026-04-28 14:07 | 55.59179 | 37.26264 | 668 ft | 21 kts | 250° |
| 2026-04-28 14:07 | 55.59105 | 37.25935 | 668 ft | 26 kts | 248° |
| 2026-04-28 14:08 | 55.59097 | 37.25791 | 668 ft | 6 kts | 325° |
| 2026-04-28 14:08 | 55.59154 | 37.25811 | 665 ft | 14 kts | 22° |
| 2026-04-28 14:08 | 55.59209 | 37.25856 | 668 ft | 0 kts | 25° |
| 2026-04-28 14:09 | 55.59224 | 37.25868 | 668 ft | 6 kts | 25° |
| 2026-04-28 14:10 | 55.59277 | 37.25912 | 667 ft | 11 kts | 24° |
| 2026-04-28 14:10 | 55.59342 | 37.25971 | 667 ft | 10 kts | 49° |
| 2026-04-28 14:10 | 55.59374 | 37.26084 | 667 ft | 10 kts | 69° |
| 2026-04-28 14:10 | 55.59398 | 37.26199 | 665 ft | 10 kts | 69° |
| 2026-04-28 14:11 | 55.59423 | 37.26310 | 667 ft | 10 kts | 68° |
| 2026-04-28 14:11 | 55.59447 | 37.26419 | 667 ft | 9 kts | 68° |
| 2026-04-28 14:11 | 55.59472 | 37.26524 | 668 ft | 9 kts | 68° |
| 2026-04-28 14:11 | 55.59495 | 37.26626 | 665 ft | 9 kts | 68° |
| 2026-04-28 14:12 | 55.59518 | 37.26726 | 668 ft | 9 kts | 68° |
| 2026-04-28 14:12 | 55.59544 | 37.26819 | 668 ft | 8 kts | 58° |
| 2026-04-28 14:12 | 55.59579 | 37.26898 | 668 ft | 8 kts | 48° |
| 2026-04-28 14:12 | 55.59616 | 37.26971 | 666 ft | 8 kts | 47° |
| 2026-04-28 14:13 | 55.59654 | 37.27039 | 668 ft | 8 kts | 46° |
| 2026-04-28 14:13 | 55.59690 | 37.27106 | 668 ft | 7 kts | 46° |
| 2026-04-28 14:13 | 55.59725 | 37.27169 | 670 ft | 7 kts | 45° |
| 2026-04-28 14:13 | 55.59758 | 37.27232 | 671 ft | 8 kts | 47° |
| 2026-04-28 14:14 | 55.59825 | 37.27357 | 672 ft | 15 kts | 46° |
| 2026-04-28 14:14 | 55.59895 | 37.27488 | 677 ft | 14 kts | 46° |
| 2026-04-28 14:14 | 55.59952 | 37.27615 | 679 ft | 13 kts | 57° |
| 2026-04-28 14:14 | 55.60007 | 37.27723 | 679 ft | 11 kts | 34° |
| 2026-04-28 14:15 | 55.60074 | 37.27697 | 679 ft | 10 kts | 330° |
| 2026-04-28 14:15 | 55.60128 | 37.27722 | 679 ft | 9 kts | 56° |
| 2026-04-28 14:15 | 55.60137 | 37.27753 | 679 ft | 0 kts | 64° |